createdAt,value
2022-10-10T00:02:08.979Z,47.58
2022-10-10T00:04:35.283Z,47.95
2022-10-10T00:07:01.566Z,47.45
2022-10-10T00:09:27.855Z,48.95
2022-10-10T00:11:54.126Z,46.55
2022-10-10T00:14:20.384Z,44.45
2022-10-10T00:16:46.643Z,49.55
2022-10-10T00:19:12.941Z,48.50
2022-10-10T00:21:39.206Z,52.92
2022-10-10T00:24:05.474Z,48.40
2022-10-10T00:26:31.724Z,46.20
2022-10-10T00:28:57.978Z,50.58
2022-10-10T00:31:24.363Z,50.38
2022-10-10T00:33:50.619Z,51.47
2022-10-10T00:36:17.018Z,49.60
2022-10-10T00:38:43.279Z,55.97
2022-10-10T00:41:09.536Z,56.78
2022-10-10T00:43:35.794Z,75.03
2022-10-10T00:46:02.107Z,69.57
2022-10-10T00:48:28.369Z,80.57
2022-10-10T00:50:54.648Z,68.90
2022-10-10T00:53:20.929Z,53.40
2022-10-10T00:55:47.691Z,53.33
2022-10-10T00:58:13.964Z,50.25
2022-10-10T01:00:40.267Z,55.05
2022-10-10T01:03:06.575Z,64.47
2022-10-10T01:05:32.834Z,72.25
2022-10-10T01:07:59.085Z,75.13
2022-10-10T01:10:25.391Z,61.33
2022-10-10T01:12:51.896Z,77.72
2022-10-10T01:15:18.486Z,53.83
2022-10-10T01:17:44.762Z,55.38
2022-10-10T01:20:11.034Z,51.72
2022-10-10T01:22:37.281Z,50.20
2022-10-10T01:25:06.815Z,77.18
2022-10-10T01:27:33.102Z,75.78
2022-10-10T01:29:59.384Z,70.32
2022-10-10T01:32:25.630Z,69.68
2022-10-10T01:34:51.905Z,47.63
2022-10-10T01:37:18.176Z,57.40
2022-10-10T01:39:44.448Z,52.58
2022-10-10T01:42:10.770Z,54.33
2022-10-10T01:44:37.154Z,52.42
2022-10-10T01:47:03.434Z,47.10
2022-10-10T01:49:29.701Z,52.10
2022-10-10T01:51:55.954Z,51.75
2022-10-10T01:54:22.207Z,68.30
2022-10-10T01:56:48.451Z,80.57
2022-10-10T01:59:14.711Z,73.13
2022-10-10T02:01:40.965Z,71.82
2022-10-10T02:04:07.241Z,60.00
2022-10-10T02:06:33.497Z,54.55
2022-10-10T02:08:59.803Z,51.85
2022-10-10T02:11:26.060Z,57.25
2022-10-10T02:13:52.339Z,58.42
2022-10-10T02:16:18.808Z,60.25
2022-10-10T02:18:45.802Z,53.92
2022-10-10T02:21:12.056Z,54.72
2022-10-10T02:23:38.298Z,55.55
2022-10-10T02:26:04.555Z,53.97
2022-10-10T02:28:30.859Z,53.63
2022-10-10T02:30:57.198Z,58.53
2022-10-10T02:33:23.451Z,50.63
2022-10-10T02:35:49.702Z,51.28
2022-10-10T02:38:16.023Z,50.25
2022-10-10T02:40:42.292Z,56.92
2022-10-10T02:43:08.601Z,59.05
2022-10-10T02:45:34.887Z,55.97
2022-10-10T02:48:01.136Z,63.70
2022-10-10T02:50:27.377Z,55.78
2022-10-10T02:52:53.869Z,59.13
2022-10-10T02:55:20.259Z,61.95
2022-10-10T02:57:46.517Z,59.95
2022-10-10T03:00:12.762Z,58.15
2022-10-10T03:02:39.051Z,53.35
2022-10-10T03:05:06.030Z,52.03
2022-10-10T03:07:32.391Z,50.17
2022-10-10T03:09:58.652Z,56.65
2022-10-10T03:12:24.901Z,58.72
2022-10-10T03:14:51.152Z,56.97
2022-10-10T03:17:17.406Z,49.63
2022-10-10T03:19:43.683Z,64.55
2022-10-10T03:22:09.946Z,75.10
2022-10-10T03:24:36.209Z,71.22
2022-10-10T03:27:02.473Z,60.78
2022-10-10T03:29:28.754Z,64.22
2022-10-10T03:31:55.038Z,66.22
2022-10-10T03:34:21.299Z,54.45
2022-10-10T03:36:47.548Z,51.80
2022-10-10T03:39:13.799Z,55.00
2022-10-10T03:41:40.064Z,48.85
2022-10-10T03:44:06.340Z,48.10
2022-10-10T03:46:32.597Z,50.60
2022-10-10T03:48:58.866Z,46.88
2022-10-10T03:51:25.161Z,58.47
2022-10-10T03:53:51.465Z,63.35
2022-10-10T03:56:17.726Z,50.97
2022-10-10T03:58:43.995Z,43.22
2022-10-10T04:01:10.332Z,44.92
2022-10-10T04:03:36.665Z,45.33
2022-10-10T04:06:02.940Z,53.30
2022-10-10T04:08:30.507Z,68.70
2022-10-10T04:10:56.815Z,62.38
2022-10-10T04:13:23.104Z,55.67
2022-10-10T04:15:49.367Z,65.53
2022-10-10T04:18:15.640Z,67.78
2022-10-10T04:20:41.883Z,71.88
2022-10-10T04:23:08.141Z,69.45
2022-10-10T04:25:34.422Z,61.22
2022-10-10T04:28:01.410Z,62.60
2022-10-10T04:30:27.736Z,70.30
2022-10-10T04:32:54.091Z,68.03
2022-10-10T04:35:20.392Z,64.00
2022-10-10T04:37:46.693Z,65.63
2022-10-10T04:40:13.112Z,66.10
2022-10-10T04:42:39.481Z,53.97
2022-10-10T04:45:07.198Z,67.97
2022-10-10T04:47:33.473Z,66.25
2022-10-10T04:49:59.752Z,69.82
2022-10-10T04:52:26.015Z,60.60
2022-10-10T04:54:52.284Z,49.03
2022-10-10T04:57:18.579Z,65.22
2022-10-10T04:59:45.082Z,58.63
2022-10-10T05:02:11.360Z,49.03
2022-10-10T05:04:37.657Z,52.75
2022-10-10T05:07:03.905Z,54.33
2022-10-10T05:09:30.171Z,56.65
2022-10-10T05:11:56.421Z,65.28
2022-10-10T05:14:22.796Z,60.03
2022-10-10T05:16:49.034Z,62.60
2022-10-10T05:19:15.308Z,60.60
2022-10-10T05:21:41.589Z,66.53
2022-10-10T05:24:07.983Z,59.83
2022-10-10T05:26:34.319Z,59.75
2022-10-10T05:29:01.594Z,70.22
2022-10-10T05:31:28.658Z,64.78
2022-10-10T05:33:54.920Z,59.97
2022-10-10T05:36:21.208Z,56.97
2022-10-10T05:38:54.314Z,67.00
2022-10-10T05:41:20.588Z,65.90
2022-10-10T05:43:46.886Z,65.30
2022-10-10T05:46:13.177Z,60.42
2022-10-10T05:48:39.591Z,68.28
2022-10-10T05:51:07.319Z,80.72
2022-10-10T05:53:33.579Z,51.33
2022-10-10T05:55:59.832Z,46.88
2022-10-10T05:58:26.126Z,44.25
2022-10-10T06:00:52.471Z,45.95
2022-10-10T06:03:18.806Z,49.88
2022-10-10T06:05:45.066Z,48.38
2022-10-10T06:08:12.400Z,44.45
2022-10-10T06:10:38.892Z,49.83
2022-10-10T06:13:05.138Z,51.40
2022-10-10T06:15:31.382Z,49.38
2022-10-10T06:17:57.630Z,51.83
2022-10-10T06:20:23.915Z,50.65
2022-10-10T06:22:50.394Z,48.40
2022-10-10T06:25:38.264Z,48.70
2022-10-10T06:28:03.080Z,51.75
2022-10-10T06:30:29.604Z,53.30
2022-10-10T06:32:57.592Z,76.93
2022-10-10T06:37:50.189Z,50.90
2022-10-10T06:40:16.482Z,46.63
2022-10-10T06:42:42.740Z,55.55
2022-10-10T06:45:09.009Z,53.90
2022-10-10T06:47:35.349Z,72.32
2022-10-10T06:50:02.335Z,48.45
2022-10-10T06:52:28.611Z,64.68
2022-10-10T06:54:54.911Z,55.55
2022-10-10T06:57:21.193Z,52.47
2022-10-10T06:59:47.452Z,95.03
2022-10-10T07:02:13.694Z,71.80
2022-10-10T07:04:39.935Z,47.55
2022-10-10T07:07:06.186Z,53.00
2022-10-10T07:09:32.443Z,68.55
2022-10-10T07:11:58.694Z,65.18
2022-10-10T07:14:24.938Z,78.18
2022-10-10T07:16:51.207Z,85.07
2022-10-10T07:19:19.015Z,96.82
2022-10-10T07:21:45.285Z,66.45
2022-10-10T07:24:11.544Z,54.90
2022-10-10T07:26:38.255Z,47.47
2022-10-10T07:29:04.519Z,49.65
2022-10-10T07:31:30.779Z,83.93
2022-10-10T07:33:57.041Z,127.30
2022-10-10T07:36:23.339Z,62.65
2022-10-10T07:38:51.872Z,53.03
2022-10-10T07:41:18.152Z,49.15
2022-10-10T07:43:44.404Z,73.20
2022-10-10T07:46:12.286Z,64.72
2022-10-10T07:51:04.978Z,51.55
2022-10-10T07:53:31.226Z,53.03
2022-10-10T07:55:57.486Z,53.10
2022-10-10T07:58:23.736Z,47.78
2022-10-10T08:00:50.005Z,43.70
2022-10-10T08:03:16.265Z,46.67
2022-10-10T08:05:42.673Z,55.58
2022-10-10T08:08:08.954Z,64.32
2022-10-10T08:10:35.263Z,56.65
2022-10-10T08:13:01.511Z,48.33
2022-10-10T08:15:30.198Z,51.05
2022-10-10T08:18:00.011Z,49.15
2022-10-10T08:20:26.287Z,52.45
2022-10-10T08:22:52.778Z,63.03
2022-10-10T08:25:19.212Z,52.47
2022-10-10T08:27:45.537Z,47.88
2022-10-10T08:30:11.811Z,49.70
2022-10-10T08:32:38.087Z,54.28
2022-10-10T08:35:04.334Z,76.20
2022-10-10T08:37:35.252Z,95.20
2022-10-10T08:40:03.605Z,56.40
2022-10-10T08:42:29.864Z,48.28
2022-10-10T08:44:56.107Z,51.65
2022-10-10T08:47:22.368Z,50.67
2022-10-10T08:49:48.617Z,47.60
2022-10-10T08:52:14.916Z,53.00
2022-10-10T08:54:41.166Z,61.33
2022-10-10T08:57:07.446Z,57.25
2022-10-10T08:59:33.712Z,44.20
2022-10-10T09:02:17.930Z,42.72
2022-10-10T09:04:45.340Z,46.63
2022-10-10T09:07:12.126Z,67.07
2022-10-10T09:09:38.378Z,133.48
2022-10-10T09:12:04.627Z,147.18
2022-10-10T09:14:30.870Z,94.82
2022-10-10T09:16:57.142Z,107.97
2022-10-10T09:19:24.631Z,78.28
2022-10-10T09:21:51.148Z,65.55
2022-10-10T09:24:17.462Z,44.15
2022-10-10T09:26:44.260Z,48.03
2022-10-10T09:29:10.530Z,64.32
2022-10-10T09:31:36.792Z,60.80
2022-10-10T09:34:03.060Z,48.75
2022-10-10T09:36:30.248Z,43.70
2022-10-10T09:38:56.532Z,47.50
2022-10-10T09:41:22.814Z,51.17
2022-10-10T09:43:49.142Z,50.17
2022-10-10T09:46:15.409Z,44.33
2022-10-10T09:48:41.669Z,69.97
2022-10-10T09:51:07.920Z,60.35
2022-10-10T09:53:34.175Z,89.00
2022-10-10T09:56:00.439Z,48.88
2022-10-10T09:58:26.756Z,53.30
2022-10-10T10:00:53.775Z,50.05
2022-10-10T10:03:20.092Z,51.63
2022-10-10T10:05:46.451Z,68.18
2022-10-10T10:08:12.712Z,89.60
2022-10-10T10:10:39.068Z,108.05
2022-10-10T10:13:05.892Z,80.40
2022-10-10T10:15:32.146Z,65.20
2022-10-10T10:17:58.461Z,52.78
2022-10-10T10:20:24.719Z,112.30
2022-10-10T10:25:22.158Z,105.07
2022-10-10T10:27:48.498Z,62.33
2022-10-10T10:30:14.806Z,55.33
2022-10-10T10:32:41.097Z,63.83
2022-10-10T10:35:07.723Z,65.82
2022-10-10T10:37:33.983Z,73.80
2022-10-10T10:40:00.240Z,69.40
2022-10-10T10:42:26.646Z,71.07
2022-10-10T10:44:52.908Z,65.57
2022-10-10T10:47:19.154Z,61.80
2022-10-10T10:49:45.404Z,72.90
2022-10-10T10:52:11.670Z,66.03
2022-10-10T10:54:40.268Z,52.88
2022-10-10T10:57:10.897Z,67.45
2022-10-10T11:00:17.112Z,57.03
2022-10-10T11:02:43.618Z,59.47
2022-10-10T11:05:24.798Z,56.85
2022-10-10T11:07:53.413Z,68.43
2022-10-10T11:10:19.660Z,60.58
2022-10-10T11:12:45.924Z,61.40
2022-10-10T11:15:12.193Z,64.18
2022-10-10T11:17:38.457Z,58.47
2022-10-10T11:20:04.719Z,61.22
2022-10-10T11:22:31.007Z,56.60
2022-10-10T11:24:57.272Z,55.13
2022-10-10T11:27:23.523Z,51.22
2022-10-10T11:29:49.789Z,54.78
2022-10-10T11:32:16.111Z,65.88
2022-10-10T11:34:42.400Z,63.35
2022-10-10T11:37:08.659Z,50.20
2022-10-10T11:39:35.056Z,47.03
2022-10-10T11:42:02.350Z,48.78
2022-10-10T11:44:28.594Z,56.38
2022-10-10T11:46:54.879Z,53.38
2022-10-10T11:49:21.138Z,64.15
2022-10-10T11:51:47.400Z,78.05
2022-10-10T11:54:13.656Z,71.80
2022-10-10T11:56:40.121Z,65.78
2022-10-10T11:59:06.420Z,73.45
2022-10-10T12:01:32.680Z,75.75
2022-10-10T12:03:58.987Z,64.05
2022-10-10T12:06:25.324Z,63.33
2022-10-10T12:08:51.614Z,67.03
2022-10-10T12:11:17.926Z,71.05
2022-10-10T12:13:44.231Z,86.25
2022-10-10T12:16:10.516Z,109.78
2022-10-10T12:18:36.781Z,97.65
2022-10-10T12:21:03.177Z,138.15
2022-10-10T12:23:29.428Z,135.13
2022-10-10T12:25:55.736Z,103.43
2022-10-10T12:28:22.099Z,150.15
2022-10-10T12:30:48.394Z,213.30
2022-10-10T12:33:14.638Z,214.50
2022-10-10T12:35:40.951Z,136.07
2022-10-10T12:38:07.298Z,69.18
2022-10-10T12:40:33.578Z,85.88
2022-10-10T12:42:59.826Z,79.85
2022-10-10T12:45:26.124Z,77.95
2022-10-10T12:48:05.025Z,79.22
2022-10-10T12:50:34.871Z,123.65
2022-10-10T12:53:01.735Z,160.65
2022-10-10T12:55:28.054Z,174.52
2022-10-10T12:57:54.535Z,209.65
2022-10-10T13:00:20.799Z,161.02
2022-10-10T13:02:47.060Z,126.75
2022-10-10T13:05:13.405Z,79.38
2022-10-10T13:07:39.846Z,83.15
2022-10-10T13:10:06.106Z,74.93
2022-10-10T13:12:32.577Z,78.00
2022-10-10T13:14:58.836Z,69.15
2022-10-10T13:17:25.120Z,73.97
2022-10-10T13:19:51.385Z,74.65
2022-10-10T13:22:17.657Z,70.57
2022-10-10T13:24:43.917Z,84.72
2022-10-10T13:27:10.169Z,68.80
2022-10-10T13:29:36.473Z,78.93
2022-10-10T13:32:02.841Z,64.68
2022-10-10T13:34:29.101Z,67.07
2022-10-10T13:36:55.723Z,68.93
2022-10-10T13:39:22.020Z,75.10
2022-10-10T13:41:48.316Z,74.60
2022-10-10T13:44:14.864Z,74.68
2022-10-10T13:46:41.138Z,76.35
2022-10-10T13:49:07.563Z,83.60
2022-10-10T13:51:33.938Z,80.00
2022-10-10T13:54:00.267Z,94.90
2022-10-10T13:56:26.590Z,100.63
2022-10-10T13:58:52.889Z,127.10
2022-10-10T14:01:19.183Z,140.35
2022-10-10T14:03:45.658Z,138.75
2022-10-10T14:06:11.918Z,170.43
2022-10-10T14:08:38.210Z,147.00
2022-10-10T14:11:05.044Z,139.73
2022-10-10T14:13:31.714Z,157.55
2022-10-10T14:15:57.968Z,145.65
2022-10-10T14:21:27.305Z,85.40
2022-10-10T14:23:53.627Z,95.15
2022-10-10T14:26:19.899Z,125.57
2022-10-10T14:28:46.242Z,104.55
2022-10-10T14:31:12.624Z,91.55
2022-10-10T14:33:38.873Z,84.75
2022-10-10T14:36:05.719Z,89.82
2022-10-10T14:38:31.991Z,75.90
2022-10-10T14:40:58.245Z,80.53
2022-10-10T14:43:24.708Z,83.82
2022-10-10T14:45:50.969Z,94.75
2022-10-10T14:48:17.226Z,102.15
2022-10-10T14:50:44.120Z,120.28
2022-10-10T14:53:10.384Z,104.65
2022-10-10T14:55:37.314Z,122.47
2022-10-10T14:58:03.575Z,209.77
2022-10-10T15:00:29.836Z,204.68
2022-10-10T15:02:56.150Z,219.85
2022-10-10T15:05:22.434Z,258.13
2022-10-10T15:07:53.337Z,213.35
2022-10-10T15:10:33.379Z,212.63
2022-10-10T15:13:00.242Z,210.18
2022-10-10T15:15:26.495Z,157.15
2022-10-10T15:17:52.783Z,87.70
2022-10-10T15:20:20.150Z,70.97
2022-10-10T15:22:46.532Z,89.82
2022-10-10T15:25:12.832Z,110.57
2022-10-10T15:27:39.131Z,113.38
2022-10-10T15:30:05.404Z,94.75
2022-10-10T15:32:31.679Z,87.32
2022-10-10T15:34:57.952Z,90.05
2022-10-10T15:37:24.215Z,88.72
2022-10-10T15:39:50.462Z,86.40
2022-10-10T15:42:22.342Z,148.55
2022-10-10T15:44:49.500Z,143.00
2022-10-10T15:47:15.778Z,175.68
2022-10-10T15:49:42.067Z,153.57
2022-10-10T15:52:08.321Z,182.98
2022-10-10T15:54:34.575Z,140.13
2022-10-10T15:57:00.888Z,103.40
2022-10-10T15:59:27.168Z,95.18
2022-10-10T16:01:55.548Z,77.72
2022-10-10T16:04:22.483Z,64.72
2022-10-10T16:06:54.552Z,70.10
2022-10-10T16:09:28.742Z,69.20
2022-10-10T16:11:55.348Z,62.03
2022-10-10T16:14:21.625Z,58.08
2022-10-10T16:16:47.877Z,58.50
2022-10-10T16:19:14.152Z,65.35
2022-10-10T16:21:40.402Z,70.95
2022-10-10T16:24:06.704Z,93.55
2022-10-10T16:26:34.491Z,111.28
2022-10-10T16:29:00.746Z,128.07
2022-10-10T16:31:27.038Z,118.07
2022-10-10T16:33:53.295Z,113.40
2022-10-10T16:36:19.580Z,89.15
2022-10-10T16:38:45.933Z,84.75
2022-10-10T16:41:28.813Z,76.53
2022-10-10T16:43:58.436Z,66.30
2022-10-10T16:46:27.239Z,62.40
2022-10-10T16:48:53.878Z,68.15
2022-10-10T16:51:20.168Z,72.43
2022-10-10T16:53:46.439Z,87.38
2022-10-10T16:56:12.718Z,95.65
2022-10-10T16:58:39.112Z,85.70
2022-10-10T17:01:06.375Z,76.75
2022-10-10T17:03:32.737Z,69.90
2022-10-10T17:05:58.994Z,65.70
2022-10-10T17:08:25.261Z,67.68
2022-10-10T17:10:51.590Z,68.57
2022-10-10T17:13:17.847Z,65.82
2022-10-10T17:15:44.118Z,64.38
2022-10-10T17:18:10.390Z,88.13
2022-10-10T17:20:36.695Z,91.20
2022-10-10T17:23:03.107Z,122.03
2022-10-10T17:25:31.134Z,124.65
2022-10-10T17:30:23.613Z,92.20
2022-10-10T17:32:49.945Z,98.85
2022-10-10T17:35:16.261Z,71.10
2022-10-10T17:37:42.553Z,59.88
2022-10-10T17:40:08.840Z,63.13
2022-10-10T17:42:35.248Z,67.45
2022-10-10T17:45:01.530Z,66.60
2022-10-10T17:47:27.834Z,63.70
2022-10-10T17:49:54.376Z,63.85
2022-10-10T17:52:21.518Z,67.72
2022-10-10T17:54:47.921Z,91.57
2022-10-10T17:57:14.189Z,105.78
2022-10-10T17:59:40.447Z,110.43
2022-10-10T18:02:06.699Z,78.00
2022-10-10T18:04:32.963Z,53.70
2022-10-10T18:06:59.349Z,57.80
2022-10-10T18:09:25.695Z,78.95
2022-10-10T18:11:51.973Z,89.07
2022-10-10T18:14:18.243Z,63.88
2022-10-10T18:16:45.027Z,56.65
2022-10-10T18:19:11.343Z,60.97
2022-10-10T18:21:37.960Z,71.07
2022-10-10T18:24:07.096Z,65.40
2022-10-10T18:26:34.837Z,73.28
2022-10-10T18:29:01.091Z,70.88
2022-10-10T18:31:27.355Z,61.92
2022-10-10T18:33:53.645Z,58.22
2022-10-10T18:36:19.906Z,55.40
2022-10-10T18:38:46.159Z,56.20
2022-10-10T18:41:12.418Z,64.20
2022-10-10T18:43:39.738Z,90.18
2022-10-10T18:46:05.997Z,80.47
2022-10-10T18:48:32.356Z,70.55
2022-10-10T18:50:58.616Z,77.38
2022-10-10T18:53:24.876Z,60.97
2022-10-10T18:55:51.124Z,50.00
2022-10-10T18:58:20.053Z,57.30
2022-10-10T19:00:46.362Z,60.20
2022-10-10T19:03:13.574Z,67.50
2022-10-10T19:05:39.836Z,71.90
2022-10-10T19:08:06.082Z,68.72
2022-10-10T19:10:32.336Z,74.72
2022-10-10T19:12:58.591Z,70.13
2022-10-10T19:15:24.845Z,70.78
2022-10-10T19:17:51.160Z,72.82
2022-10-10T19:20:17.429Z,69.30
2022-10-10T19:22:43.688Z,68.35
2022-10-10T19:25:10.006Z,65.45
2022-10-10T19:27:36.263Z,65.85
2022-10-10T19:30:02.668Z,68.95
2022-10-10T19:32:29.005Z,69.13
2022-10-10T19:34:55.266Z,74.35
2022-10-10T19:37:21.570Z,67.03
2022-10-10T19:39:47.833Z,70.05
2022-10-10T19:42:14.096Z,66.53
2022-10-10T19:44:40.351Z,86.88
2022-10-10T19:47:06.616Z,76.70
2022-10-10T19:49:32.911Z,74.22
2022-10-10T19:51:59.167Z,70.43
2022-10-10T19:54:25.414Z,110.15
2022-10-10T19:56:51.841Z,112.78
2022-10-10T19:59:18.116Z,114.75
2022-10-10T20:01:44.619Z,106.10
2022-10-10T20:04:11.476Z,84.07
2022-10-10T20:06:37.795Z,79.47
2022-10-10T20:09:08.335Z,77.95
2022-10-10T20:11:36.026Z,78.25
2022-10-10T20:14:02.270Z,77.53
2022-10-10T20:16:28.554Z,89.22
2022-10-10T20:18:55.963Z,86.03
2022-10-10T20:21:22.826Z,83.53
2022-10-10T20:23:49.088Z,87.75
2022-10-10T20:26:15.361Z,89.40
2022-10-10T20:28:41.684Z,73.85
2022-10-10T20:31:08.011Z,78.90
2022-10-10T20:33:34.292Z,96.75
2022-10-10T20:36:00.535Z,67.53
2022-10-10T20:38:26.885Z,73.45
2022-10-10T20:40:53.144Z,68.65
2022-10-10T20:43:19.408Z,63.13
2022-10-10T20:45:45.668Z,69.50
2022-10-10T20:48:11.942Z,71.85
2022-10-10T20:50:38.214Z,70.40
2022-10-10T20:53:04.546Z,60.75
2022-10-10T20:55:30.824Z,60.67
2022-10-10T20:57:57.089Z,61.80
2022-10-10T21:00:23.340Z,60.17
2022-10-10T21:02:49.655Z,65.80
2022-10-10T21:05:15.925Z,58.95
2022-10-10T21:07:42.183Z,63.05
2022-10-10T21:10:08.438Z,57.35
2022-10-10T21:12:34.704Z,83.28
2022-10-10T21:15:02.392Z,78.45
2022-10-10T21:17:29.123Z,76.72
2022-10-10T21:19:55.430Z,79.32
2022-10-10T21:22:21.675Z,90.65
2022-10-10T21:24:47.965Z,62.33
2022-10-10T21:27:14.244Z,113.15
2022-10-10T21:29:40.500Z,87.20
2022-10-10T21:32:06.766Z,80.57
2022-10-10T21:34:33.014Z,107.63
2022-10-10T21:36:59.339Z,89.22
2022-10-10T21:39:26.447Z,80.05
2022-10-10T21:41:52.633Z,91.63
2022-10-10T21:44:18.888Z,75.15
2022-10-10T21:46:45.162Z,63.78
2022-10-10T21:49:11.427Z,58.40
2022-10-10T21:51:38.227Z,60.20
2022-10-10T21:54:04.504Z,63.72
2022-10-10T21:56:30.771Z,67.20
2022-10-10T21:59:00.990Z,81.60
2022-10-10T22:01:27.907Z,77.65
2022-10-10T22:03:54.311Z,86.05
2022-10-10T22:06:20.567Z,82.03
2022-10-10T22:08:46.841Z,70.20
2022-10-10T22:11:13.127Z,72.57
2022-10-10T22:13:39.405Z,66.65
2022-10-10T22:16:06.189Z,54.00
2022-10-10T22:18:32.814Z,57.40
2022-10-10T22:20:59.066Z,55.00
2022-10-10T22:23:25.379Z,50.17
2022-10-10T22:25:51.982Z,58.17
2022-10-10T22:28:18.244Z,54.60
2022-10-10T22:30:44.567Z,63.55
2022-10-10T22:33:10.833Z,60.65
2022-10-10T22:35:37.122Z,68.63
2022-10-10T22:38:03.394Z,71.45
2022-10-10T22:40:29.653Z,70.85
2022-10-10T22:42:55.938Z,69.10
2022-10-10T22:45:22.198Z,58.58
2022-10-10T22:47:48.458Z,77.07
2022-10-10T22:50:14.719Z,83.63
2022-10-10T22:52:40.981Z,87.53
2022-10-10T22:55:07.222Z,78.75
2022-10-10T22:57:33.494Z,81.40
2022-10-10T22:59:59.741Z,67.57
2022-10-10T23:02:26.045Z,62.20
2022-10-10T23:04:52.298Z,58.60
2022-10-10T23:07:20.159Z,65.38
2022-10-10T23:09:46.627Z,69.20
2022-10-10T23:12:12.875Z,62.45
2022-10-10T23:14:39.122Z,86.43
2022-10-10T23:17:05.378Z,105.63
2022-10-10T23:19:31.687Z,90.72
2022-10-10T23:21:57.943Z,91.25
2022-10-10T23:24:24.202Z,95.15
2022-10-10T23:26:50.442Z,103.40
2022-10-10T23:29:16.702Z,104.00
2022-10-10T23:31:42.957Z,129.48
2022-10-10T23:34:09.244Z,79.30
2022-10-10T23:36:35.524Z,125.85
2022-10-10T23:39:03.654Z,78.53
2022-10-10T23:41:32.766Z,115.70
2022-10-10T23:43:59.384Z,134.38
2022-10-10T23:46:25.652Z,140.38
2022-10-10T23:48:51.903Z,138.68
2022-10-10T23:51:18.159Z,93.63
2022-10-10T23:53:44.428Z,93.68
2022-10-10T23:56:10.723Z,70.40
2022-10-10T23:58:36.980Z,69.60
